Time;durP1;ratioP1;P1;durP2;ratioP2;P2;SDS_P1;SDS_P2;PMS_P1;PMS_P2;Temp;Humidity;BMP_temperature;BMP_pressure;BME280_temperature;BME280_humidity;BME280_pressure;Samples;Min_cycle;Max_cycle;Signal;HPM_P1;HPM_P2
2021/12/10 00:01:21;;;;;;;10.70;3.72;;;;;;;6.26;81.02;97550.63;4965704;28;20098;-54
2021/12/10 00:03:51;;;;;;;10.00;4.28;;;;;;;6.26;81.79;97553.22;4962351;28;20113;-51
2021/12/10 00:06:23;;;;;;;12.07;4.53;;;;;;;6.28;82.34;97555.72;4965136;28;20055;-51
2021/12/10 00:08:55;;;;;;;9.70;4.78;;;;;;;6.23;81.71;97557.56;4963832;28;20062;-53
2021/12/10 00:11:27;;;;;;;7.50;3.40;;;;;;;6.24;82.50;97559.25;4959520;28;20051;-50
2021/12/10 00:13:55;;;;;;;11.43;4.18;;;;;;;6.22;81.59;97561.88;4963652;28;20059;-53
2021/12/10 00:16:22;;;;;;;14.25;5.22;;;;;;;6.22;82.17;97558.44;4961993;28;20447;-55
2021/12/10 00:18:55;;;;;;;10.75;3.97;;;;;;;6.24;82.28;97561.81;4964225;28;20383;-56
2021/12/10 00:21:25;;;;;;;10.27;4.03;;;;;;;6.22;81.67;97561.88;4964985;28;20114;-55
2021/12/10 00:23:54;;;;;;;8.18;3.35;;;;;;;6.23;81.45;97560.13;4963541;28;20094;-52
2021/12/10 00:26:21;;;;;;;10.48;4.05;;;;;;;6.23;80.51;97562.69;4958678;28;20046;-54
2021/12/10 00:28:49;;;;;;;11.23;4.07;;;;;;;6.23;81.98;97562.69;4964967;28;20043;-50
2021/12/10 00:31:47;;;;;;;11.10;4.13;;;;;;;6.22;80.82;97566.16;4961802;28;20134;-55
2021/12/10 00:34:35;;;;;;;12.55;5.15;;;;;;;6.22;81.50;97567.03;4958585;28;20428;-52
2021/12/10 00:37:06;;;;;;;8.98;3.22;;;;;;;6.21;81.53;97560.16;4962625;28;20043;-52
2021/12/10 00:39:38;;;;;;;8.18;3.65;;;;;;;6.12;81.33;97561.22;4962931;28;20085;-56
2021/12/10 00:42:09;;;;;;;13.15;3.85;;;;;;;6.19;80.70;97561.09;4969022;28;20051;-53
2021/12/10 00:44:36;;;;;;;10.85;4.35;;;;;;;6.20;81.67;97567.91;4966029;28;20196;-57
2021/12/10 00:47:04;;;;;;;6.32;2.92;;;;;;;6.14;80.85;97568.91;4966221;28;20088;-56
2021/12/10 00:49:32;;;;;;;11.43;3.92;;;;;;;6.15;81.87;97561.16;4966630;28;20047;-53
2021/12/10 00:51:59;;;;;;;7.05;3.40;;;;;;;6.19;81.71;97566.22;4969113;28;20490;-53
2021/12/10 00:54:26;;;;;;;8.73;3.40;;;;;;;6.17;82.10;97559.41;4969897;28;20047;-56
2021/12/10 00:56:52;;;;;;;8.88;4.20;;;;;;;6.20;81.98;97567.91;4967719;28;20051;-53
2021/12/10 00:59:20;;;;;;;8.82;3.58;;;;;;;6.17;81.89;97561.13;4967913;28;20050;-53
2021/12/10 01:01:48;;;;;;;11.15;4.32;;;;;;;6.15;82.34;97571.44;4970197;28;20043;-49
2021/12/10 01:04:20;;;;;;;8.63;3.85;;;;;;;6.16;81.82;97567.16;4970460;28;20051;-54
2021/12/10 01:06:49;;;;;;;10.45;3.80;;;;;;;6.17;80.96;97569.69;4966652;28;20058;-52
2021/12/10 01:09:22;;;;;;;6.70;2.75;;;;;;;6.13;82.55;97573.22;4970503;28;20474;-49
2021/12/10 01:11:54;;;;;;;7.22;3.22;;;;;;;6.11;81.35;97574.97;4970836;28;20097;-54
2021/12/10 01:14:40;;;;;;;6.30;3.17;;;;;;;6.11;80.70;97574.97;4968789;28;20554;-54
2021/12/10 01:25:36;;;;;;;6.05;2.72;;;;;;;6.08;81.75;97605.88;4969200;28;20106;-56
2021/12/10 01:28:05;;;;;;;6.72;2.40;;;;;;;6.09;81.06;97614.44;4967110;28;20188;-53
2021/12/10 01:30:37;;;;;;;8.90;1.23;;;;;;;6.03;80.91;97616.28;4970175;28;20109;-53
2021/12/10 01:33:09;;;;;;;2.00;1.15;;;;;;;5.99;80.52;97617.22;4966912;28;20561;-50
2021/12/10 01:35:40;;;;;;;1.45;0.45;;;;;;;5.97;80.60;97623.25;4969267;28;20360;-53
2021/12/10 01:38:08;;;;;;;1.83;1.13;;;;;;;5.95;80.14;97630.16;4969770;28;20062;-55
2021/12/10 01:40:39;;;;;;;7.82;1.27;;;;;;;5.91;79.17;97632.78;4971863;28;20062;-57
2021/12/10 01:43:08;;;;;;;4.72;1.27;;;;;;;5.86;79.90;97624.34;4967483;28;20772;-53
2021/12/10 01:45:45;;;;;;;4.90;1.27;;;;;;;5.87;79.42;97643.16;4963987;28;20453;-53
2021/12/10 01:48:16;;;;;;;2.67;0.85;;;;;;;5.89;79.47;97636.28;4965991;28;20059;-56
2021/12/10 01:50:43;;;;;;;2.60;1.27;;;;;;;5.83;79.55;97642.41;4968069;28;20097;-53
2021/12/10 01:53:12;;;;;;;5.47;0.73;;;;;;;5.82;78.01;97645.84;4971682;28;20062;-52
2021/12/10 01:55:44;;;;;;;3.05;0.70;;;;;;;5.80;79.27;97652.75;4965617;28;20105;-52
2021/12/10 01:58:14;;;;;;;4.57;0.98;;;;;;;5.75;78.81;97654.56;4963237;28;20051;-53
2021/12/10 02:00:50;;;;;;;5.18;0.98;;;;;;;5.74;78.78;97663.16;4969770;28;20684;-52
2021/12/10 02:03:18;;;;;;;3.67;0.70;;;;;;;5.71;77.93;97655.53;4965558;28;20057;-55
2021/12/10 02:05:45;;;;;;;1.58;1.33;;;;;;;5.71;78.43;97674.31;4967904;28;20414;-53
2021/12/10 02:08:12;;;;;;;5.80;1.05;;;;;;;5.66;77.38;97679.59;4968730;28;20051;-54
2021/12/10 02:10:39;;;;;;;4.55;1.25;;;;;;;5.64;77.98;97675.34;4967895;28;20051;-57
2021/12/10 02:13:05;;;;;;;3.60;1.08;;;;;;;5.61;77.48;97688.25;4967386;28;20101;-53
2021/12/10 02:15:33;;;;;;;8.40;0.82;;;;;;;5.60;78.44;97695.09;4967892;28;20054;-55
2021/12/10 02:18:01;;;;;;;8.18;1.38;;;;;;;5.61;77.95;97699.34;4970166;28;20502;-53
2021/12/10 02:20:35;;;;;;;4.30;0.73;;;;;;;5.55;78.52;97704.63;4966878;28;20051;-50
2021/12/10 02:23:05;;;;;;;5.18;1.35;;;;;;;5.54;77.97;97702.91;4966893;28;20062;-54
2021/12/10 02:25:37;;;;;;;7.07;0.70;;;;;;;5.55;79.02;97714.06;4966038;28;20063;-51
2021/12/10 02:28:07;;;;;;;12.35;1.20;;;;;;;5.52;78.87;97715.81;4965865;28;20069;-57
2021/12/10 02:30:34;;;;;;;9.18;1.17;;;;;;;5.50;78.25;97711.56;4966495;28;20046;-58
2021/12/10 02:33:00;;;;;;;6.90;1.65;;;;;;;5.48;78.84;97713.34;4967293;28;20561;-51
2021/12/10 02:35:28;;;;;;;8.18;1.48;;;;;;;5.46;78.55;97710.78;4966310;28;20102;-53
2021/12/10 02:37:56;;;;;;;5.10;1.80;;;;;;;5.44;78.47;97716.84;4967008;28;20066;-55
2021/12/10 02:40:24;;;;;;;10.65;1.17;;;;;;;5.46;78.67;97709.94;4966221;28;20053;-52
2021/12/10 02:42:53;;;;;;;6.05;1.80;;;;;;;5.39;78.70;97715.22;4967832;28;20156;-55
2021/12/10 02:45:22;;;;;;;7.78;1.23;;;;;;;5.35;78.56;97713.59;4965298;28;20050;-56
2021/12/10 02:47:50;;;;;;;6.10;0.95;;;;;;;5.36;78.82;97725.53;4968384;28;20059;-57
2021/12/10 02:50:20;;;;;;;10.85;1.00;;;;;;;5.34;78.22;97722.13;4966426;28;20039;-51
2021/12/10 02:52:47;;;;;;;6.22;1.25;;;;;;;5.35;78.26;97717.84;4980817;28;20055;-54
2021/12/10 02:55:15;;;;;;;9.32;1.27;;;;;;;5.35;77.54;97718.72;4966487;28;20077;-58
2021/12/10 02:57:45;;;;;;;8.75;1.35;;;;;;;5.32;78.25;97713.63;4963750;28;20054;-57
2021/12/10 03:00:22;;;;;;;2.80;0.82;;;;;;;5.31;77.34;97717.09;4965504;28;20077;-51
2021/12/10 03:02:51;;;;;;;7.25;1.70;;;;;;;5.28;77.81;97724.84;4964679;28;20236;-51
2021/12/10 03:05:19;;;;;;;7.72;1.48;;;;;;;5.28;77.09;97735.09;4964946;28;21261;-51
2021/12/10 03:07:47;;;;;;;7.95;1.10;;;;;;;5.25;76.96;97737.72;4968976;28;20533;-52
2021/12/10 03:10:22;;;;;;;8.20;1.08;;;;;;;5.25;77.65;97732.59;4964381;28;20105;-56
2021/12/10 03:12:49;;;;;;;7.50;1.35;;;;;;;5.25;76.36;97737.72;4969553;28;20097;-53
2021/12/10 03:15:19;;;;;;;5.15;2.55;;;;;;;5.23;76.75;97744.59;4964754;28;20078;-55
2021/12/10 03:17:46;;;;;;;7.15;2.03;;;;;;;5.21;77.47;97748.91;4965197;28;20454;-56
2021/12/10 03:20:23;;;;;;;8.60;1.52;;;;;;;5.17;76.29;97749.84;4966917;28;20039;-52
2021/12/10 03:22:50;;;;;;;;;;;;;;;5.09;76.29;97758.53;4968140;28;20050;-56
2021/12/10 03:25:18;;;;;;;3.38;1.30;;;;;;;5.11;76.25;97748.22;4969351;28;19926;-53
2021/12/10 03:27:46;;;;;;;1.95;0.90;;;;;;;5.08;75.87;97767.09;4965327;28;20055;-56
2021/12/10 03:30:19;;;;;;;9.23;1.70;;;;;;;5.05;75.65;97756.03;4966435;28;20050;-51
2021/12/10 03:32:46;;;;;;;6.60;0.73;;;;;;;5.04;75.91;97764.59;4967080;28;20058;-53
2021/12/10 03:35:23;;;;;;;8.15;0.98;;;;;;;4.99;75.69;97774.94;4964961;28;20104;-49
2021/12/10 03:37:49;;;;;;;;;;;;;;;4.91;74.99;97771.66;4964384;28;20651;-53
2021/12/10 03:40:17;;;;;;;9.27;1.17;;;;;;;4.92;75.39;97781.03;4966667;28;21660;-55
2021/12/10 03:42:47;;;;;;;5.55;1.10;;;;;;;4.89;74.62;97777.66;4965826;28;20050;-53
2021/12/10 03:45:15;;;;;;;12.85;1.30;;;;;;;4.91;75.27;97787.03;4963124;28;20050;-55
2021/12/10 03:47:43;;;;;;;13.60;1.50;;;;;;;4.84;74.55;97789.72;4967929;28;20042;-52
2021/12/10 03:50:12;;;;;;;6.25;0.70;;;;;;;4.81;74.53;97789.78;4967081;28;20070;-52
2021/12/10 03:52:38;;;;;;;4.97;0.77;;;;;;;4.80;74.72;97782.09;4963204;28;20054;-51
2021/12/10 03:55:07;;;;;;;5.50;1.73;;;;;;;4.75;74.36;97779.59;4963723;28;20137;-53
2021/12/10 03:57:33;;;;;;;5.45;1.05;;;;;;;4.77;74.68;97788.13;4965709;28;20062;-54
2021/12/10 04:00:00;;;;;;;17.70;1.33;;;;;;;4.71;74.29;97783.09;4966324;28;20343;-54
2021/12/10 04:02:27;;;;;;;7.00;1.02;;;;;;;4.72;74.37;97789.91;4965586;28;20105;-56
2021/12/10 04:04:54;;;;;;;2.47;0.57;;;;;;;4.68;74.75;97798.50;4966206;28;20058;-57
2021/12/10 04:07:24;;;;;;;12.55;1.02;;;;;;;4.68;74.96;97785.69;4965198;28;20505;-55
2021/12/10 04:09:53;;;;;;;10.68;2.03;;;;;;;4.61;74.80;97788.38;4964507;28;20097;-54
2021/12/10 04:12:20;;;;;;;3.17;0.95;;;;;;;4.56;74.96;97800.38;4967114;28;20065;-57
2021/12/10 04:14:49;;;;;;;4.43;0.50;;;;;;;4.55;74.89;97788.44;4967243;28;20054;-58
2021/12/10 04:17:18;;;;;;;3.63;0.88;;;;;;;4.54;74.73;97797.00;4969692;28;20078;-51
2021/12/10 04:19:48;;;;;;;4.63;0.65;;;;;;;4.52;75.18;97798.75;4970002;28;20101;-56
2021/12/10 04:22:14;;;;;;;5.53;1.25;;;;;;;4.52;74.41;97809.00;4965611;28;20069;-54
2021/12/10 04:24:42;;;;;;;7.10;1.08;;;;;;;4.43;74.89;97814.25;4967321;28;20113;-51
2021/12/10 04:27:11;;;;;;;1.73;0.45;;;;;;;4.37;74.36;97826.31;4966829;28;20058;-56
2021/12/10 04:29:39;;;;;;;3.40;0.93;;;;;;;4.29;74.41;97828.09;4969462;28;20058;-55
2021/12/10 04:32:07;;;;;;;3.90;0.88;;;;;;;4.29;74.52;97838.34;4971225;28;20050;-54
2021/12/10 04:34:34;;;;;;;5.57;1.10;;;;;;;4.27;74.18;97849.50;4968765;28;20106;-56
2021/12/10 04:37:04;;;;;;;5.20;1.10;;;;;;;4.21;74.00;97841.03;4969587;28;20054;-53
2021/12/10 04:39:33;;;;;;;4.88;0.70;;;;;;;4.17;73.34;97853.88;4969462;28;20063;-51
2021/12/10 04:42:00;;;;;;;3.40;0.47;;;;;;;4.13;73.29;97852.22;4969235;28;20055;-55
2021/12/10 04:44:27;;;;;;;5.82;1.13;;;;;;;4.08;73.71;97850.56;4966801;28;20710;-52
2021/12/10 04:46:54;;;;;;;2.95;0.68;;;;;;;4.03;73.24;97842.09;4968451;28;20478;-53
2021/12/10 04:49:21;;;;;;;3.00;1.23;;;;;;;3.94;72.91;97847.31;4969114;28;20430;-54
2021/12/10 04:51:51;;;;;;;2.75;0.40;;;;;;;3.91;73.18;97847.34;4969097;28;20499;-53
2021/12/10 04:54:21;;;;;;;4.07;1.13;;;;;;;3.87;73.64;97846.53;4971350;28;20538;-49
2021/12/10 04:56:50;;;;;;;2.92;0.45;;;;;;;3.84;73.39;97852.56;4970391;28;20050;-49
2021/12/10 04:59:18;;;;;;;5.00;1.05;;;;;;;3.75;73.28;97846.69;4969341;28;20058;-52
2021/12/10 05:01:45;;;;;;;3.53;0.60;;;;;;;3.71;73.09;97845.84;4969116;28;20047;-54
2021/12/10 05:04:14;;;;;;;1.33;0.65;;;;;;;3.72;73.22;97847.56;4967317;28;20054;-49
2021/12/10 05:06:42;;;;;;;2.80;1.08;;;;;;;3.66;72.99;97850.19;4968952;28;20071;-54
2021/12/10 05:09:12;;;;;;;2.55;0.63;;;;;;;3.57;73.76;97854.53;4969649;28;20050;-53
2021/12/10 05:11:40;;;;;;;4.28;0.93;;;;;;;3.56;74.02;97851.97;4968291;28;20051;-55
2021/12/10 05:14:06;;;;;;;1.52;0.50;;;;;;;3.55;73.35;97870.78;4967858;28;20050;-54
2021/12/10 05:16:38;;;;;;;5.63;1.13;;;;;;;3.48;73.31;97864.88;4966849;28;20541;-52
2021/12/10 05:19:06;;;;;;;1.88;0.68;;;;;;;3.43;74.28;97864.03;4965386;28;20059;-53
2021/12/10 05:21:35;;;;;;;5.78;1.02;;;;;;;3.42;74.47;97875.16;4966277;28;20066;-54
2021/12/10 05:24:07;;;;;;;6.20;0.63;;;;;;;3.44;73.48;97873.41;4969520;28;20113;-54
2021/12/10 05:26:35;;;;;;;3.17;0.55;;;;;;;3.37;74.55;97869.22;4966861;28;20047;-54
2021/12/10 05:29:05;;;;;;;1.42;0.45;;;;;;;3.34;74.63;97881.19;4969297;28;20085;-55
2021/12/10 05:31:33;;;;;;;1.10;0.43;;;;;;;3.32;74.87;97890.56;4968319;28;20491;-54
2021/12/10 05:34:00;;;;;;;6.20;1.08;;;;;;;3.31;74.02;97894.00;4967973;28;20054;-52
2021/12/10 05:36:27;;;;;;;2.83;0.52;;;;;;;3.31;74.57;97888.88;4968768;28;20054;-56
2021/12/10 05:38:54;;;;;;;4.93;1.02;;;;;;;3.26;74.04;97900.88;4969471;28;20062;-54
2021/12/10 05:41:22;;;;;;;4.28;0.65;;;;;;;3.25;74.38;97904.28;4966590;28;20533;-54
2021/12/10 05:43:49;;;;;;;2.05;0.45;;;;;;;3.14;75.17;97911.19;4967177;28;20454;-57
2021/12/10 05:46:17;;;;;;;2.08;0.50;;;;;;;3.08;75.15;97912.09;4967033;28;20599;-55
2021/12/10 05:48:44;;;;;;;4.38;0.60;;;;;;;3.10;75.32;97919.75;4966845;28;20046;-52
2021/12/10 05:51:12;;;;;;;2.10;1.05;;;;;;;3.08;74.72;97928.25;4967091;28;20042;-51
2021/12/10 05:53:40;;;;;;;2.60;0.82;;;;;;;3.10;74.48;97940.22;4963254;28;20891;-52
2021/12/10 05:56:07;;;;;;;4.43;0.93;;;;;;;3.03;74.43;97940.25;4963626;28;20046;-52
2021/12/10 05:58:35;;;;;;;2.42;0.55;;;;;;;2.99;75.56;97956.47;4967781;28;20039;-52
2021/12/10 06:01:09;;;;;;;8.70;0.88;;;;;;;2.96;75.50;97961.59;4967885;28;20055;-57
2021/12/10 06:03:38;;;;;;;5.97;0.93;;;;;;;2.92;75.64;97962.47;4965268;28;20061;-52
2021/12/10 06:06:06;;;;;;;4.55;0.70;;;;;;;2.95;74.88;97972.69;4964949;28;20059;-53
2021/12/10 06:08:34;;;;;;;4.63;0.47;;;;;;;2.93;75.42;97959.06;4969881;28;20054;-52
2021/12/10 06:11:01;;;;;;;8.75;0.60;;;;;;;2.94;75.53;97978.69;4965925;28;20039;-51
2021/12/10 06:13:28;;;;;;;4.30;0.85;;;;;;;2.89;74.89;97985.50;4967132;28;20047;-56
2021/12/10 06:15:55;;;;;;;0.75;0.30;;;;;;;2.85;75.13;97987.22;4965772;28;20515;-54
2021/12/10 06:18:22;;;;;;;5.07;1.17;;;;;;;2.85;75.48;97981.25;4966656;28;20126;-56
2021/12/10 06:20:51;;;;;;;1.58;0.35;;;;;;;2.81;76.34;97986.38;4967565;28;20507;-56
2021/12/10 06:23:19;;;;;;;0.70;0.32;;;;;;;2.75;75.73;97994.09;4967524;28;20063;-48
2021/12/10 06:25:46;;;;;;;2.53;0.40;;;;;;;2.77;76.44;98004.31;4967052;28;20051;-57
2021/12/10 06:28:13;;;;;;;1.17;0.55;;;;;;;2.75;76.24;98001.75;4966369;28;20050;-52
2021/12/10 06:30:42;;;;;;;1.20;0.40;;;;;;;2.72;75.44;98006.88;4966517;28;20054;-55
2021/12/10 06:33:14;;;;;;;3.25;0.95;;;;;;;2.66;76.20;98015.44;4966772;28;20047;-55
2021/12/10 06:35:44;;;;;;;2.13;0.95;;;;;;;2.66;75.25;98012.00;4963444;28;20047;-55
2021/12/10 06:38:12;;;;;;;1.10;0.40;;;;;;;2.64;76.29;98021.41;4962096;28;20051;-56
2021/12/10 06:40:40;;;;;;;1.42;0.65;;;;;;;2.59;76.91;98025.66;4966018;28;20122;-55
2021/12/10 06:43:08;;;;;;;1.42;0.43;;;;;;;2.52;75.96;98041.03;4966250;28;20043;-55
2021/12/10 06:45:41;;;;;;;2.72;0.52;;;;;;;2.48;77.09;98039.34;4966342;28;20050;-56
2021/12/10 06:48:10;;;;;;;9.63;0.70;;;;;;;2.49;77.43;98051.25;4966815;28;20050;-53
2021/12/10 06:50:43;;;;;;;0.63;0.40;;;;;;;2.44;76.52;98037.66;4966931;28;20085;-52
2021/12/10 06:53:10;;;;;;;3.67;1.17;;;;;;;2.44;76.22;98052.97;4965198;28;20046;-56
2021/12/10 06:55:37;;;;;;;2.83;0.73;;;;;;;2.41;77.11;98037.66;4966028;28;20055;-53
2021/12/10 06:58:05;;;;;;;1.88;0.50;;;;;;;2.39;77.52;98054.66;4965546;28;20054;-54
2021/12/10 07:00:41;;;;;;;4.68;0.52;;;;;;;2.30;77.69;98058.94;4963939;28;20101;-56
2021/12/10 07:03:12;;;;;;;3.22;0.68;;;;;;;2.37;77.19;98071.72;4965307;28;20061;-58
2021/12/10 07:05:39;;;;;;;0.80;0.17;;;;;;;2.33;77.60;98075.13;4966138;28;20051;-55
2021/12/10 07:08:06;;;;;;;4.40;0.40;;;;;;;2.31;77.79;98080.25;4982962;28;20446;-53
2021/12/10 07:10:33;;;;;;;4.00;0.63;;;;;;;2.37;77.80;98084.50;4964832;28;20050;-53
2021/12/10 07:13:03;;;;;;;6.03;0.85;;;;;;;2.34;76.41;98087.06;4964148;28;20050;-52
2021/12/10 07:15:30;;;;;;;9.07;0.80;;;;;;;2.35;77.17;98098.97;4966433;28;20047;-56
2021/12/10 07:17:57;;;;;;;1.85;0.65;;;;;;;2.36;76.36;98106.63;4962387;28;20117;-52
2021/12/10 07:20:25;;;;;;;0.95;0.63;;;;;;;2.31;76.75;98128.78;4962707;28;20441;-57
2021/12/10 07:22:52;;;;;;;1.13;0.40;;;;;;;2.31;76.86;98139.88;4961057;28;20051;-52
2021/12/10 07:25:20;;;;;;;3.92;0.30;;;;;;;2.35;76.88;98160.28;4960077;28;20114;-53
2021/12/10 07:27:49;;;;;;;3.25;0.80;;;;;;;2.38;76.69;98148.38;4965107;28;20615;-53
2021/12/10 07:30:17;;;;;;;1.92;0.60;;;;;;;2.42;77.51;98151.78;4966479;28;20101;-51
2021/12/10 07:32:44;;;;;;;8.23;0.70;;;;;;;2.41;77.09;98155.19;4970381;28;20109;-52
2021/12/10 07:35:10;;;;;;;3.78;0.50;;;;;;;2.38;76.94;98155.19;4969596;28;20051;-56
2021/12/10 07:37:38;;;;;;;3.47;0.70;;;;;;;2.36;77.68;98156.91;4956436;28;20063;-56
2021/12/10 07:40:09;;;;;;;1.92;0.52;;;;;;;2.33;77.91;98167.13;4960032;28;20050;-57
2021/12/10 07:42:36;;;;;;;3.05;0.50;;;;;;;2.25;78.05;98170.53;4958239;28;20085;-53
2021/12/10 07:45:05;;;;;;;3.63;0.57;;;;;;;2.27;77.52;98184.13;4959648;28;20130;-53
2021/12/10 07:47:35;;;;;;;1.33;0.90;;;;;;;2.21;78.13;98184.16;4974777;28;20566;-53
2021/12/10 07:50:08;;;;;;;5.72;0.70;;;;;;;2.18;77.40;98179.03;4961730;28;20138;-51
2021/12/10 07:52:36;;;;;;;1.13;0.57;;;;;;;2.15;78.20;98184.13;4959602;28;20157;-57
2021/12/10 07:55:06;;;;;;;6.72;0.75;;;;;;;2.16;77.69;98185.84;4962063;28;20549;-54
2021/12/10 07:57:33;;;;;;;3.42;1.23;;;;;;;2.16;77.02;98196.06;4959936;28;20102;-52
2021/12/10 08:00:00;;;;;;;3.75;0.57;;;;;;;2.12;78.32;98207.09;4959979;28;20043;-52
2021/12/10 08:02:26;;;;;;;4.85;0.75;;;;;;;2.12;78.57;98202.00;4961088;28;20055;-53
2021/12/10 08:04:53;;;;;;;3.45;0.40;;;;;;;2.07;78.46;98208.81;4962314;28;20089;-53
2021/12/10 08:07:20;;;;;;;1.73;0.82;;;;;;;2.11;78.08;98207.97;4961104;28;20062;-53
2021/12/10 08:09:46;;;;;;;3.03;0.90;;;;;;;2.13;77.26;98216.50;4955519;28;20102;-55
2021/12/10 08:12:13;;;;;;;1.42;0.70;;;;;;;2.12;77.10;98215.63;4956311;28;20056;-56
2021/12/10 08:14:40;;;;;;;3.38;0.80;;;;;;;2.15;77.82;98215.63;4961233;28;20051;-51
2021/12/10 08:17:07;;;;;;;2.40;1.10;;;;;;;2.17;78.78;98223.31;4963587;28;20050;-57
2021/12/10 08:19:33;;;;;;;1.67;0.60;;;;;;;2.17;77.85;98224.13;4962182;28;20047;-57
2021/12/10 08:22:00;;;;;;;3.40;0.73;;;;;;;2.19;78.05;98221.59;4960837;28;20491;-52
2021/12/10 08:24:28;;;;;;;1.75;0.60;;;;;;;2.19;77.82;98224.16;4960616;28;20727;-52
2021/12/10 08:26:54;;;;;;;1.73;0.50;;;;;;;2.21;77.62;98235.22;4956596;28;20090;-51
2021/12/10 08:29:22;;;;;;;2.17;0.88;;;;;;;2.25;77.13;98236.94;4960078;28;20063;-54
2021/12/10 08:31:48;;;;;;;3.97;0.98;;;;;;;2.27;77.34;98250.56;4952653;28;20093;-50
2021/12/10 08:34:16;;;;;;;4.28;0.73;;;;;;;2.29;78.56;98248.88;4956375;28;20066;-52
2021/12/10 08:36:42;;;;;;;0.60;0.40;;;;;;;2.24;78.58;98250.56;4955383;28;20051;-52
2021/12/10 08:39:11;;;;;;;6.70;1.17;;;;;;;2.28;76.97;98256.53;4952169;28;20141;-53
2021/12/10 08:41:39;;;;;;;4.03;0.57;;;;;;;2.35;77.39;98267.59;4958750;28;20074;-52
2021/12/10 08:44:13;;;;;;;3.83;1.25;;;;;;;2.43;78.49;98263.34;4954077;28;20668;-52
2021/12/10 08:46:42;;;;;;;3.67;0.60;;;;;;;2.60;76.63;98262.53;4959085;28;20058;-53
2021/12/10 08:49:10;;;;;;;3.53;1.08;;;;;;;2.78;77.40;98267.66;4962731;28;20074;-54
2021/12/10 08:51:41;;;;;;;2.42;0.63;;;;;;;2.91;75.80;98267.66;4960751;28;20106;-53
2021/12/10 08:54:10;;;;;;;1.27;0.52;;;;;;;3.02;75.90;98281.28;4957607;28;20077;-53
2021/12/10 08:56:38;;;;;;;2.85;0.93;;;;;;;3.01;75.05;98277.00;4966198;28;20051;-54
2021/12/10 08:59:07;;;;;;;3.63;0.73;;;;;;;3.00;75.29;98285.53;4966040;28;20434;-55
2021/12/10 09:01:37;;;;;;;1.40;0.38;;;;;;;2.95;76.13;98292.38;4963808;28;20050;-53
2021/12/10 09:04:06;;;;;;;;;;;;;;;2.95;75.94;98292.38;4963310;28;20051;-52
2021/12/10 09:06:37;;;;;;;2.03;0.70;;;;;;;3.07;76.16;98294.94;4960434;28;19922;-54
2021/12/10 09:09:06;;;;;;;;;;;;;;;3.25;75.41;98295.78;4962202;28;20306;-55
2021/12/10 09:11:33;;;;;;;4.00;0.70;;;;;;;3.46;74.81;98296.59;4962750;28;20369;-57
2021/12/10 09:14:19;;;;;;;4.43;0.60;;;;;;;3.79;74.40;98299.06;4959219;28;20066;-53
2021/12/10 09:16:47;;;;;;;2.42;0.43;;;;;;;3.99;73.17;98312.63;4983846;28;20070;-53
2021/12/10 09:19:16;;;;;;;1.45;0.52;;;;;;;4.23;72.72;98322.78;4967253;28;20101;-56
2021/12/10 09:21:44;;;;;;;2.17;0.75;;;;;;;4.43;72.59;98321.84;4967563;28;20495;-54
2021/12/10 09:24:13;;;;;;;1.83;0.63;;;;;;;4.46;71.38;98337.22;4968723;28;20102;-57
2021/12/10 09:26:43;;;;;;;3.42;0.55;;;;;;;4.55;71.59;98352.53;4966557;28;20109;-56
2021/12/10 09:29:12;;;;;;;2.08;0.65;;;;;;;4.58;70.64;98356.78;4967127;28;20126;-55
2021/12/10 09:31:42;;;;;;;1.42;0.50;;;;;;;4.88;71.27;98360.88;4961679;28;20059;-53
2021/12/10 09:34:11;;;;;;;4.75;0.32;;;;;;;5.23;69.83;98360.59;4967232;28;20549;-54
2021/12/10 09:36:39;;;;;;;2.25;1.15;;;;;;;5.74;70.47;98361.88;4966256;28;20530;-57
2021/12/10 09:39:07;;;;;;;1.38;0.45;;;;;;;6.33;68.38;98381.81;4965139;28;20098;-53
2021/12/10 09:41:35;;;;;;;6.15;0.50;;;;;;;6.72;67.49;98386.44;4963857;28;20043;-54
2021/12/10 09:44:04;;;;;;;2.60;0.50;;;;;;;7.22;65.73;98382.31;4962103;28;20047;-53
2021/12/10 09:46:31;;;;;;;3.03;0.70;;;;;;;7.56;64.88;98386.88;4965750;28;20066;-54
2021/12/10 09:48:58;;;;;;;4.05;0.70;;;;;;;8.01;63.24;98375.78;4964758;28;20053;-57
2021/12/10 09:51:29;;;;;;;4.25;1.48;;;;;;;8.20;62.33;98381.41;4959800;28;20495;-53
2021/12/10 09:53:59;;;;;;;2.40;1.05;;;;;;;8.43;60.48;98380.09;4965999;28;20231;-55
2021/12/10 09:56:27;;;;;;;3.33;0.80;;;;;;;8.81;61.10;98394.84;4964740;28;20097;-54
2021/12/10 09:58:57;;;;;;;5.32;0.77;;;;;;;9.24;61.49;98393.84;4965098;28;20059;-58
2021/12/10 10:01:28;;;;;;;1.65;0.50;;;;;;;9.51;60.62;98398.38;4962688;28;20646;-53
2021/12/10 10:04:01;;;;;;;2.78;1.30;;;;;;;9.98;60.56;98405.78;4961766;28;20058;-56
2021/12/10 10:06:32;;;;;;;3.17;0.60;;;;;;;10.20;58.24;98415.53;4960783;28;20059;-51
2021/12/10 10:08:59;;;;;;;4.85;1.25;;;;;;;10.58;59.83;98425.75;4958871;28;20062;-55
2021/12/10 10:11:42;;;;;;;3.83;1.58;;;;;;;10.77;58.00;98427.78;4966080;28;20042;-52
2021/12/10 10:14:09;;;;;;;6.80;1.67;;;;;;;11.04;57.32;98428.69;4959096;28;20047;-55
2021/12/10 10:16:43;;;;;;;5.95;1.25;;;;;;;10.88;56.92;98427.47;4960070;28;20110;-52
2021/12/10 10:19:15;;;;;;;6.25;1.33;;;;;;;10.58;56.79;98436.09;4962781;28;20527;-53
2021/12/10 10:21:48;;;;;;;10.55;1.73;;;;;;;10.47;56.83;98436.38;4966334;28;20035;-56
2021/12/10 10:24:17;;;;;;;7.63;1.67;;;;;;;9.69;56.96;98440.16;4962588;28;20670;-54
2021/12/10 10:26:49;;;;;;;6.45;1.52;;;;;;;9.46;58.20;98447.56;4964778;28;20086;-55
2021/12/10 10:29:20;;;;;;;3.25;1.45;;;;;;;9.51;57.82;98453.50;4961586;28;20078;-53
2021/12/10 10:31:54;;;;;;;4.90;1.73;;;;;;;9.89;58.37;98468.06;4969441;28;20054;-51
2021/12/10 10:34:22;;;;;;;4.15;1.15;;;;;;;9.96;56.27;98456.69;4968271;28;20105;-50
2021/12/10 10:36:49;;;;;;;4.88;0.82;;;;;;;10.21;56.38;98458.66;4966307;28;20059;-54
2021/12/10 10:39:22;;;;;;;7.93;1.23;;;;;;;10.01;56.32;98457.44;4968653;28;20061;-53
2021/12/10 10:41:53;;;;;;;3.08;0.77;;;;;;;9.52;56.74;98460.34;4967209;28;20054;-52
2021/12/10 10:44:22;;;;;;;7.13;1.23;;;;;;;9.16;58.12;98451.72;4967374;28;20049;-55
2021/12/10 10:46:55;;;;;;;6.07;0.55;;;;;;;8.69;58.79;98451.00;4967289;28;20072;-56
2021/12/10 10:49:44;;;;;;;3.83;1.05;;;;;;;8.22;60.33;98458.75;4964627;28;20051;-54
2021/12/10 10:52:28;;;;;;;5.45;0.93;;;;;;;8.08;61.76;98459.03;4967294;28;20051;-58
2021/12/10 10:55:14;;;;;;;7.72;0.60;;;;;;;7.91;61.83;98460.16;4966618;28;20054;-57
2021/12/10 10:58:02;;;;;;;1.05;0.98;;;;;;;7.42;62.55;98456.66;4966290;28;20047;-54
2021/12/10 11:01:02;;;;;;;4.57;1.10;;;;;;;7.38;63.30;98466.19;4969963;28;20102;-53
2021/12/10 11:04:00;;;;;;;3.60;0.77;;;;;;;7.28;62.61;98480.91;4964520;28;20075;-57
2021/12/10 11:06:34;;;;;;;9.20;1.13;;;;;;;7.25;63.61;98490.41;4967807;28;20050;-57
2021/12/10 11:09:10;;;;;;;4.38;1.10;;;;;;;6.99;64.03;98500.19;4967613;28;20055;-53
2021/12/10 11:11:45;;;;;;;4.55;1.02;;;;;;;6.97;63.92;98503.66;4965391;28;20094;-54
2021/12/10 11:14:20;;;;;;;3.60;0.90;;;;;;;6.78;65.15;98499.59;4967329;28;20130;-51
2021/12/10 11:16:49;;;;;;;2.10;0.70;;;;;;;6.69;64.94;98503.13;4965874;28;20051;-54
2021/12/10 11:19:20;;;;;;;4.55;0.80;;;;;;;6.75;65.23;98503.94;4964680;28;20559;-53
2021/12/10 11:21:51;;;;;;;1.23;0.60;;;;;;;6.56;66.46;98493.84;4969862;28;20046;-51
2021/12/10 11:24:31;;;;;;;2.50;1.15;;;;;;;6.49;65.94;98497.38;4966386;28;20070;-56
2021/12/10 11:27:03;;;;;;;4.40;0.88;;;;;;;6.50;65.77;98506.78;4965401;28;20430;-56
2021/12/10 11:29:39;;;;;;;1.05;0.52;;;;;;;6.40;66.05;98518.88;4961616;28;20583;-57
2021/12/10 11:32:11;;;;;;;4.30;0.63;;;;;;;6.34;67.91;98527.50;4958686;28;20051;-53
2021/12/10 11:34:48;;;;;;;6.57;0.98;;;;;;;6.41;67.08;98530.88;4957737;28;20126;-56
2021/12/10 11:37:37;;;;;;;3.08;1.10;;;;;;;6.36;67.36;98536.06;4959285;28;20113;-54
2021/12/10 11:40:07;;;;;;;6.45;0.93;;;;;;;6.43;68.18;98542.84;4962964;28;20047;-53
2021/12/10 11:42:46;;;;;;;5.65;0.70;;;;;;;6.37;67.86;98547.19;4958627;28;20113;-54
2021/12/10 11:45:31;;;;;;;5.28;0.68;;;;;;;6.19;68.31;98553.38;4962403;28;20050;-50
2021/12/10 11:48:07;;;;;;;5.10;0.85;;;;;;;6.20;68.34;98539.63;4976341;28;20714;-55
2021/12/10 11:50:41;;;;;;;4.47;1.17;;;;;;;6.21;68.49;98546.50;4961324;28;20101;-57
2021/12/10 11:53:13;;;;;;;6.75;1.08;;;;;;;6.39;67.64;98536.03;4960472;28;20047;-59
2021/12/10 11:55:59;;;;;;;2.80;0.82;;;;;;;6.39;66.89;98548.03;4954596;28;20055;-55
2021/12/10 11:58:26;;;;;;;3.47;1.20;;;;;;;6.35;68.42;98562.63;4959604;28;20109;-57
2021/12/10 12:00:54;;;;;;;8.23;1.50;;;;;;;6.40;66.79;98553.19;4959930;28;20054;-52
2021/12/10 12:03:28;;;;;;;2.20;0.65;;;;;;;6.42;66.74;98551.44;4959575;28;20140;-57